sensor_id;sensor_type;location;lat;lon;timestamp;P1;durP1;ratioP1;P2;durP2;ratioP2
31128;SDS011;17777;48.770;8.944;2023-09-07T00:01:31;2.95;;;1.55;;
31128;SDS011;17777;48.770;8.944;2023-09-07T00:03:58;5.07;;;1.98;;
31128;SDS011;17777;48.770;8.944;2023-09-07T00:06:24;2.30;;;1.75;;
31128;SDS011;17777;48.770;8.944;2023-09-07T00:08:51;2.58;;;1.67;;
31128;SDS011;17777;48.770;8.944;2023-09-07T00:11:16;2.30;;;1.80;;
31128;SDS011;17777;48.770;8.944;2023-09-07T00:13:43;1.63;;;1.52;;
31128;SDS011;17777;48.770;8.944;2023-09-07T00:16:09;2.20;;;1.70;;
31128;SDS011;17777;48.770;8.944;2023-09-07T00:18:34;2.10;;;1.52;;
31128;SDS011;17777;48.770;8.944;2023-09-07T00:21:01;2.72;;;1.70;;
31128;SDS011;17777;48.770;8.944;2023-09-07T00:23:28;2.53;;;1.80;;
31128;SDS011;17777;48.770;8.944;2023-09-07T00:25:54;1.80;;;1.65;;
31128;SDS011;17777;48.770;8.944;2023-09-07T00:28:20;1.85;;;1.52;;
31128;SDS011;17777;48.770;8.944;2023-09-07T00:30:45;3.42;;;1.67;;
31128;SDS011;17777;48.770;8.944;2023-09-07T00:33:11;2.50;;;1.73;;
31128;SDS011;17777;48.770;8.944;2023-09-07T00:35:37;2.38;;;1.77;;
31128;SDS011;17777;48.770;8.944;2023-09-07T00:38:03;2.13;;;1.70;;
31128;SDS011;17777;48.770;8.944;2023-09-07T00:40:29;1.77;;;1.63;;
31128;SDS011;17777;48.770;8.944;2023-09-07T00:42:55;2.22;;;1.52;;
31128;SDS011;17777;48.770;8.944;2023-09-07T00:45:21;2.83;;;1.65;;
31128;SDS011;17777;48.770;8.944;2023-09-07T00:47:47;5.47;;;1.90;;
31128;SDS011;17777;48.770;8.944;2023-09-07T00:50:13;1.98;;;1.83;;
31128;SDS011;17777;48.770;8.944;2023-09-07T00:52:44;1.60;;;1.50;;
31128;SDS011;17777;48.770;8.944;2023-09-07T00:55:11;1.52;;;1.42;;
31128;SDS011;17777;48.770;8.944;2023-09-07T00:57:38;2.92;;;1.48;;
31128;SDS011;17777;48.770;8.944;2023-09-07T01:00:05;2.28;;;1.73;;
31128;SDS011;17777;48.770;8.944;2023-09-07T01:02:33;4.30;;;1.67;;
31128;SDS011;17777;48.770;8.944;2023-09-07T01:04:59;2.30;;;1.70;;
31128;SDS011;17777;48.770;8.944;2023-09-07T01:07:37;2.08;;;1.80;;
31128;SDS011;17777;48.770;8.944;2023-09-07T01:10:12;2.42;;;1.63;;
31128;SDS011;17777;48.770;8.944;2023-09-07T01:12:39;1.55;;;1.45;;
31128;SDS011;17777;48.770;8.944;2023-09-07T01:15:06;3.10;;;1.98;;
31128;SDS011;17777;48.770;8.944;2023-09-07T01:17:32;3.90;;;1.42;;
31128;SDS011;17777;48.770;8.944;2023-09-07T01:19:59;2.85;;;2.10;;
31128;SDS011;17777;48.770;8.944;2023-09-07T01:22:32;1.77;;;1.50;;
31128;SDS011;17777;48.770;8.944;2023-09-07T01:24:59;1.52;;;1.40;;
31128;SDS011;17777;48.770;8.944;2023-09-07T01:27:27;2.28;;;1.90;;
31128;SDS011;17777;48.770;8.944;2023-09-07T01:29:53;2.70;;;1.40;;
31128;SDS011;17777;48.770;8.944;2023-09-07T01:32:19;1.58;;;1.48;;
31128;SDS011;17777;48.770;8.944;2023-09-07T01:34:45;2.08;;;1.60;;
31128;SDS011;17777;48.770;8.944;2023-09-07T01:37:11;2.30;;;1.50;;
31128;SDS011;17777;48.770;8.944;2023-09-07T01:39:37;1.85;;;1.60;;
31128;SDS011;17777;48.770;8.944;2023-09-07T01:42:03;1.73;;;1.50;;
31128;SDS011;17777;48.770;8.944;2023-09-07T01:44:29;1.80;;;1.40;;
31128;SDS011;17777;48.770;8.944;2023-09-07T01:46:55;1.55;;;1.30;;
31128;SDS011;17777;48.770;8.944;2023-09-07T01:49:21;1.70;;;1.58;;
31128;SDS011;17777;48.770;8.944;2023-09-07T01:51:46;2.88;;;1.88;;
31128;SDS011;17777;48.770;8.944;2023-09-07T01:54:12;1.77;;;1.45;;
31128;SDS011;17777;48.770;8.944;2023-09-07T01:56:38;2.90;;;1.48;;
31128;SDS011;17777;48.770;8.944;2023-09-07T01:59:06;1.60;;;1.50;;
31128;SDS011;17777;48.770;8.944;2023-09-07T02:01:32;2.78;;;1.80;;
31128;SDS011;17777;48.770;8.944;2023-09-07T02:04:01;1.77;;;1.55;;
31128;SDS011;17777;48.770;8.944;2023-09-07T02:06:28;2.35;;;1.70;;
31128;SDS011;17777;48.770;8.944;2023-09-07T02:08:53;1.85;;;1.55;;
31128;SDS011;17777;48.770;8.944;2023-09-07T02:11:21;2.88;;;1.60;;
31128;SDS011;17777;48.770;8.944;2023-09-07T02:13:48;1.75;;;1.63;;
31128;SDS011;17777;48.770;8.944;2023-09-07T02:16:14;2.00;;;1.75;;
31128;SDS011;17777;48.770;8.944;2023-09-07T02:18:40;1.95;;;1.58;;
31128;SDS011;17777;48.770;8.944;2023-09-07T02:21:12;1.58;;;1.40;;
31128;SDS011;17777;48.770;8.944;2023-09-07T02:23:39;2.83;;;1.80;;
31128;SDS011;17777;48.770;8.944;2023-09-07T02:26:05;2.00;;;1.58;;
31128;SDS011;17777;48.770;8.944;2023-09-07T02:28:31;1.75;;;1.60;;
31128;SDS011;17777;48.770;8.944;2023-09-07T02:31:03;2.65;;;1.60;;
31128;SDS011;17777;48.770;8.944;2023-09-07T02:33:31;2.33;;;1.58;;
31128;SDS011;17777;48.770;8.944;2023-09-07T02:35:57;2.05;;;1.50;;
31128;SDS011;17777;48.770;8.944;2023-09-07T02:38:24;4.20;;;2.15;;
31128;SDS011;17777;48.770;8.944;2023-09-07T02:40:50;2.15;;;1.73;;
31128;SDS011;17777;48.770;8.944;2023-09-07T02:43:16;2.05;;;1.52;;
31128;SDS011;17777;48.770;8.944;2023-09-07T02:45:42;1.55;;;1.45;;
31128;SDS011;17777;48.770;8.944;2023-09-07T02:48:08;2.05;;;1.85;;
31128;SDS011;17777;48.770;8.944;2023-09-07T02:50:36;2.58;;;1.58;;
31128;SDS011;17777;48.770;8.944;2023-09-07T02:53:02;2.38;;;1.80;;
31128;SDS011;17777;48.770;8.944;2023-09-07T02:55:29;2.10;;;1.90;;
31128;SDS011;17777;48.770;8.944;2023-09-07T02:57:56;3.15;;;1.90;;
31128;SDS011;17777;48.770;8.944;2023-09-07T03:00:24;1.63;;;1.52;;
31128;SDS011;17777;48.770;8.944;2023-09-07T03:02:50;2.15;;;1.70;;
31128;SDS011;17777;48.770;8.944;2023-09-07T03:05:17;2.47;;;1.60;;
31128;SDS011;17777;48.770;8.944;2023-09-07T03:07:44;1.98;;;1.80;;
31128;SDS011;17777;48.770;8.944;2023-09-07T03:10:13;1.40;;;1.30;;
31128;SDS011;17777;48.770;8.944;2023-09-07T03:12:42;2.75;;;1.83;;
31128;SDS011;17777;48.770;8.944;2023-09-07T03:15:07;1.95;;;1.70;;
31128;SDS011;17777;48.770;8.944;2023-09-07T03:17:34;2.28;;;1.80;;
31128;SDS011;17777;48.770;8.944;2023-09-07T03:20:00;1.60;;;1.50;;
31128;SDS011;17777;48.770;8.944;2023-09-07T03:22:42;1.95;;;1.50;;
31128;SDS011;17777;48.770;8.944;2023-09-07T03:25:10;2.13;;;1.58;;
31128;SDS011;17777;48.770;8.944;2023-09-07T03:27:38;2.28;;;1.58;;
31128;SDS011;17777;48.770;8.944;2023-09-07T03:30:06;2.33;;;1.80;;
31128;SDS011;17777;48.770;8.944;2023-09-07T03:32:34;1.75;;;1.65;;
31128;SDS011;17777;48.770;8.944;2023-09-07T03:35:00;3.38;;;2.05;;
31128;SDS011;17777;48.770;8.944;2023-09-07T03:37:28;2.42;;;1.60;;
31128;SDS011;17777;48.770;8.944;2023-09-07T03:39:55;2.20;;;1.80;;
31128;SDS011;17777;48.770;8.944;2023-09-07T03:42:21;3.42;;;1.55;;
31128;SDS011;17777;48.770;8.944;2023-09-07T03:44:48;1.52;;;1.42;;
31128;SDS011;17777;48.770;8.944;2023-09-07T03:47:14;2.42;;;1.80;;
31128;SDS011;17777;48.770;8.944;2023-09-07T03:49:41;3.08;;;1.80;;
31128;SDS011;17777;48.770;8.944;2023-09-07T03:52:07;2.40;;;1.83;;
31128;SDS011;17777;48.770;8.944;2023-09-07T03:54:34;2.03;;;1.83;;
31128;SDS011;17777;48.770;8.944;2023-09-07T03:57:01;2.95;;;1.95;;
31128;SDS011;17777;48.770;8.944;2023-09-07T03:59:28;2.08;;;1.88;;
31128;SDS011;17777;48.770;8.944;2023-09-07T04:01:54;2.22;;;1.33;;
31128;SDS011;17777;48.770;8.944;2023-09-07T04:04:20;1.95;;;1.48;;
31128;SDS011;17777;48.770;8.944;2023-09-07T04:06:46;2.42;;;1.55;;
31128;SDS011;17777;48.770;8.944;2023-09-07T04:09:15;1.90;;;1.63;;
31128;SDS011;17777;48.770;8.944;2023-09-07T04:11:41;1.60;;;1.50;;
31128;SDS011;17777;48.770;8.944;2023-09-07T04:14:07;2.63;;;1.90;;
31128;SDS011;17777;48.770;8.944;2023-09-07T04:16:33;4.60;;;1.70;;
31128;SDS011;17777;48.770;8.944;2023-09-07T04:18:59;2.90;;;1.63;;
31128;SDS011;17777;48.770;8.944;2023-09-07T04:21:25;3.55;;;1.63;;
31128;SDS011;17777;48.770;8.944;2023-09-07T04:23:51;3.60;;;2.00;;
31128;SDS011;17777;48.770;8.944;2023-09-07T04:26:17;4.03;;;1.92;;
31128;SDS011;17777;48.770;8.944;2023-09-07T04:28:42;3.03;;;1.90;;
31128;SDS011;17777;48.770;8.944;2023-09-07T04:31:08;2.60;;;1.70;;
31128;SDS011;17777;48.770;8.944;2023-09-07T04:33:34;1.95;;;1.70;;
31128;SDS011;17777;48.770;8.944;2023-09-07T04:36:10;4.13;;;1.98;;
31128;SDS011;17777;48.770;8.944;2023-09-07T04:38:44;2.15;;;1.83;;
31128;SDS011;17777;48.770;8.944;2023-09-07T04:41:11;3.33;;;1.63;;
31128;SDS011;17777;48.770;8.944;2023-09-07T04:43:39;1.95;;;1.75;;
31128;SDS011;17777;48.770;8.944;2023-09-07T04:46:08;2.50;;;1.55;;
31128;SDS011;17777;48.770;8.944;2023-09-07T04:48:35;2.30;;;1.80;;
31128;SDS011;17777;48.770;8.944;2023-09-07T04:51:01;1.95;;;1.77;;
31128;SDS011;17777;48.770;8.944;2023-09-07T04:53:30;3.75;;;1.95;;
31128;SDS011;17777;48.770;8.944;2023-09-07T04:56:03;1.67;;;1.58;;
31128;SDS011;17777;48.770;8.944;2023-09-07T04:58:30;1.95;;;1.58;;
31128;SDS011;17777;48.770;8.944;2023-09-07T05:01:03;1.70;;;1.52;;
31128;SDS011;17777;48.770;8.944;2023-09-07T05:03:34;2.00;;;1.60;;
31128;SDS011;17777;48.770;8.944;2023-09-07T05:06:01;1.85;;;1.73;;
31128;SDS011;17777;48.770;8.944;2023-09-07T05:08:29;2.08;;;1.88;;
31128;SDS011;17777;48.770;8.944;2023-09-07T05:10:55;1.92;;;1.65;;
31128;SDS011;17777;48.770;8.944;2023-09-07T05:13:26;2.78;;;1.80;;
31128;SDS011;17777;48.770;8.944;2023-09-07T05:15:53;2.08;;;1.80;;
31128;SDS011;17777;48.770;8.944;2023-09-07T05:18:21;1.80;;;1.70;;
31128;SDS011;17777;48.770;8.944;2023-09-07T05:20:47;1.45;;;1.35;;
31128;SDS011;17777;48.770;8.944;2023-09-07T05:23:16;4.95;;;1.25;;
31128;SDS011;17777;48.770;8.944;2023-09-07T05:25:50;1.85;;;1.67;;
31128;SDS011;17777;48.770;8.944;2023-09-07T05:28:19;2.08;;;1.65;;
31128;SDS011;17777;48.770;8.944;2023-09-07T05:30:46;1.92;;;1.60;;
31128;SDS011;17777;48.770;8.944;2023-09-07T05:33:14;1.70;;;1.60;;
31128;SDS011;17777;48.770;8.944;2023-09-07T05:35:41;2.13;;;1.45;;
31128;SDS011;17777;48.770;8.944;2023-09-07T05:38:09;4.57;;;1.67;;
31128;SDS011;17777;48.770;8.944;2023-09-07T05:40:37;2.05;;;1.80;;
31128;SDS011;17777;48.770;8.944;2023-09-07T05:43:05;1.92;;;1.73;;
31128;SDS011;17777;48.770;8.944;2023-09-07T05:45:33;2.65;;;2.00;;
31128;SDS011;17777;48.770;8.944;2023-09-07T05:48:05;1.65;;;1.55;;
31128;SDS011;17777;48.770;8.944;2023-09-07T05:50:33;1.80;;;1.70;;
31128;SDS011;17777;48.770;8.944;2023-09-07T05:53:01;1.52;;;1.42;;
31128;SDS011;17777;48.770;8.944;2023-09-07T05:55:27;4.18;;;1.80;;
31128;SDS011;17777;48.770;8.944;2023-09-07T05:57:54;2.55;;;1.73;;
31128;SDS011;17777;48.770;8.944;2023-09-07T06:00:21;2.53;;;1.60;;
31128;SDS011;17777;48.770;8.944;2023-09-07T06:02:49;3.10;;;1.90;;
31128;SDS011;17777;48.770;8.944;2023-09-07T06:05:15;5.60;;;1.90;;
31128;SDS011;17777;48.770;8.944;2023-09-07T06:07:41;4.53;;;2.03;;
31128;SDS011;17777;48.770;8.944;2023-09-07T06:10:09;3.45;;;2.28;;
31128;SDS011;17777;48.770;8.944;2023-09-07T06:12:35;3.42;;;2.10;;
31128;SDS011;17777;48.770;8.944;2023-09-07T06:15:02;4.28;;;2.08;;
31128;SDS011;17777;48.770;8.944;2023-09-07T06:17:29;3.10;;;2.28;;
31128;SDS011;17777;48.770;8.944;2023-09-07T06:19:56;2.88;;;2.25;;
31128;SDS011;17777;48.770;8.944;2023-09-07T06:22:24;2.35;;;2.00;;
31128;SDS011;17777;48.770;8.944;2023-09-07T06:24:50;3.05;;;2.20;;
31128;SDS011;17777;48.770;8.944;2023-09-07T06:27:17;3.95;;;2.17;;
31128;SDS011;17777;48.770;8.944;2023-09-07T06:29:43;4.20;;;1.95;;
31128;SDS011;17777;48.770;8.944;2023-09-07T06:32:08;2.63;;;2.15;;
31128;SDS011;17777;48.770;8.944;2023-09-07T06:34:34;2.42;;;2.05;;
31128;SDS011;17777;48.770;8.944;2023-09-07T06:37:01;4.22;;;2.00;;
31128;SDS011;17777;48.770;8.944;2023-09-07T06:39:27;4.13;;;2.20;;
31128;SDS011;17777;48.770;8.944;2023-09-07T06:41:53;3.40;;;2.17;;
31128;SDS011;17777;48.770;8.944;2023-09-07T06:44:21;3.50;;;1.75;;
31128;SDS011;17777;48.770;8.944;2023-09-07T06:46:48;4.35;;;2.13;;
31128;SDS011;17777;48.770;8.944;2023-09-07T06:49:16;3.58;;;2.38;;
31128;SDS011;17777;48.770;8.944;2023-09-07T06:51:42;2.42;;;2.20;;
31128;SDS011;17777;48.770;8.944;2023-09-07T06:54:08;2.70;;;2.28;;
31128;SDS011;17777;48.770;8.944;2023-09-07T06:56:35;3.13;;;2.25;;
31128;SDS011;17777;48.770;8.944;2023-09-07T06:59:01;3.50;;;2.47;;
31128;SDS011;17777;48.770;8.944;2023-09-07T07:01:27;4.07;;;2.60;;
31128;SDS011;17777;48.770;8.944;2023-09-07T07:03:53;2.90;;;2.38;;
31128;SDS011;17777;48.770;8.944;2023-09-07T07:06:19;3.30;;;2.38;;
31128;SDS011;17777;48.770;8.944;2023-09-07T07:08:46;2.75;;;2.50;;
31128;SDS011;17777;48.770;8.944;2023-09-07T07:11:11;2.60;;;2.40;;
31128;SDS011;17777;48.770;8.944;2023-09-07T07:13:37;3.75;;;2.45;;
31128;SDS011;17777;48.770;8.944;2023-09-07T07:16:04;2.42;;;2.22;;
31128;SDS011;17777;48.770;8.944;2023-09-07T07:18:31;5.35;;;2.30;;
31128;SDS011;17777;48.770;8.944;2023-09-07T07:20:57;3.10;;;2.75;;
31128;SDS011;17777;48.770;8.944;2023-09-07T07:23:23;3.03;;;2.30;;
31128;SDS011;17777;48.770;8.944;2023-09-07T07:25:49;2.67;;;2.25;;
31128;SDS011;17777;48.770;8.944;2023-09-07T07:28:16;3.58;;;2.15;;
31128;SDS011;17777;48.770;8.944;2023-09-07T07:30:42;2.40;;;2.20;;
31128;SDS011;17777;48.770;8.944;2023-09-07T07:33:08;4.35;;;2.47;;
31128;SDS011;17777;48.770;8.944;2023-09-07T07:35:37;2.58;;;2.38;;
31128;SDS011;17777;48.770;8.944;2023-09-07T07:38:04;2.45;;;2.25;;
31128;SDS011;17777;48.770;8.944;2023-09-07T07:40:31;2.55;;;2.35;;
31128;SDS011;17777;48.770;8.944;2023-09-07T07:42:58;2.35;;;2.13;;
31128;SDS011;17777;48.770;8.944;2023-09-07T07:45:24;3.03;;;2.30;;
31128;SDS011;17777;48.770;8.944;2023-09-07T07:47:51;3.72;;;2.03;;
31128;SDS011;17777;48.770;8.944;2023-09-07T07:50:18;2.95;;;2.10;;
31128;SDS011;17777;48.770;8.944;2023-09-07T07:52:45;2.63;;;2.30;;
31128;SDS011;17777;48.770;8.944;2023-09-07T07:55:11;2.58;;;2.20;;
31128;SDS011;17777;48.770;8.944;2023-09-07T07:57:38;2.92;;;2.40;;
31128;SDS011;17777;48.770;8.944;2023-09-07T08:00:05;4.43;;;2.40;;
31128;SDS011;17777;48.770;8.944;2023-09-07T08:02:39;2.83;;;2.35;;
31128;SDS011;17777;48.770;8.944;2023-09-07T08:05:07;3.22;;;2.40;;
31128;SDS011;17777;48.770;8.944;2023-09-07T08:07:34;3.53;;;2.35;;
31128;SDS011;17777;48.770;8.944;2023-09-07T08:10:00;2.42;;;2.22;;
31128;SDS011;17777;48.770;8.944;2023-09-07T08:12:26;2.40;;;2.15;;
31128;SDS011;17777;48.770;8.944;2023-09-07T08:14:53;4.90;;;2.10;;
31128;SDS011;17777;48.770;8.944;2023-09-07T08:17:20;4.55;;;2.20;;
31128;SDS011;17777;48.770;8.944;2023-09-07T08:19:46;2.60;;;2.40;;
31128;SDS011;17777;48.770;8.944;2023-09-07T08:22:17;2.17;;;1.98;;
31128;SDS011;17777;48.770;8.944;2023-09-07T08:24:43;2.08;;;1.98;;
31128;SDS011;17777;48.770;8.944;2023-09-07T08:27:10;2.92;;;2.10;;
31128;SDS011;17777;48.770;8.944;2023-09-07T08:29:41;3.10;;;2.10;;
31128;SDS011;17777;48.770;8.944;2023-09-07T08:32:08;2.15;;;1.95;;
31128;SDS011;17777;48.770;8.944;2023-09-07T08:34:36;2.15;;;2.00;;
31128;SDS011;17777;48.770;8.944;2023-09-07T08:37:05;1.90;;;1.80;;
31128;SDS011;17777;48.770;8.944;2023-09-07T08:39:34;2.15;;;1.95;;
31128;SDS011;17777;48.770;8.944;2023-09-07T08:42:01;2.00;;;1.90;;
31128;SDS011;17777;48.770;8.944;2023-09-07T08:44:29;5.80;;;2.28;;
31128;SDS011;17777;48.770;8.944;2023-09-07T08:46:58;2.40;;;2.08;;
31128;SDS011;17777;48.770;8.944;2023-09-07T08:49:29;1.80;;;1.70;;
31128;SDS011;17777;48.770;8.944;2023-09-07T08:51:57;2.05;;;1.90;;
31128;SDS011;17777;48.770;8.944;2023-09-07T08:54:24;2.10;;;1.90;;
31128;SDS011;17777;48.770;8.944;2023-09-07T08:56:51;2.40;;;2.10;;
31128;SDS011;17777;48.770;8.944;2023-09-07T08:59:17;5.35;;;1.88;;
31128;SDS011;17777;48.770;8.944;2023-09-07T09:01:43;2.22;;;2.00;;
31128;SDS011;17777;48.770;8.944;2023-09-07T09:04:09;2.25;;;1.88;;
31128;SDS011;17777;48.770;8.944;2023-09-07T09:06:35;1.77;;;1.67;;
31128;SDS011;17777;48.770;8.944;2023-09-07T09:09:01;1.92;;;1.83;;
31128;SDS011;17777;48.770;8.944;2023-09-07T09:11:30;2.17;;;1.98;;
31128;SDS011;17777;48.770;8.944;2023-09-07T09:13:56;1.90;;;1.80;;
31128;SDS011;17777;48.770;8.944;2023-09-07T09:16:21;2.75;;;2.00;;
31128;SDS011;17777;48.770;8.944;2023-09-07T09:18:51;2.00;;;1.90;;
31128;SDS011;17777;48.770;8.944;2023-09-07T09:21:21;1.98;;;1.77;;
31128;SDS011;17777;48.770;8.944;2023-09-07T09:23:49;1.95;;;1.85;;
31128;SDS011;17777;48.770;8.944;2023-09-07T09:26:17;3.47;;;2.15;;
31128;SDS011;17777;48.770;8.944;2023-09-07T09:28:43;3.00;;;1.92;;
31128;SDS011;17777;48.770;8.944;2023-09-07T09:31:10;2.58;;;2.35;;
31128;SDS011;17777;48.770;8.944;2023-09-07T09:33:42;2.30;;;2.10;;
31128;SDS011;17777;48.770;8.944;2023-09-07T09:36:14;2.25;;;1.98;;
31128;SDS011;17777;48.770;8.944;2023-09-07T09:38:46;2.40;;;2.08;;
31128;SDS011;17777;48.770;8.944;2023-09-07T09:41:18;3.22;;;1.92;;
31128;SDS011;17777;48.770;8.944;2023-09-07T09:43:46;3.47;;;1.80;;
31128;SDS011;17777;48.770;8.944;2023-09-07T09:46:16;3.42;;;1.73;;
31128;SDS011;17777;48.770;8.944;2023-09-07T09:48:42;2.20;;;1.90;;
31128;SDS011;17777;48.770;8.944;2023-09-07T09:51:10;2.33;;;2.05;;
31128;SDS011;17777;48.770;8.944;2023-09-07T09:53:36;2.00;;;1.90;;
31128;SDS011;17777;48.770;8.944;2023-09-07T09:56:02;1.75;;;1.63;;
31128;SDS011;17777;48.770;8.944;2023-09-07T09:58:28;2.15;;;1.80;;
31128;SDS011;17777;48.770;8.944;2023-09-07T10:00:54;2.67;;;2.22;;
31128;SDS011;17777;48.770;8.944;2023-09-07T10:03:24;2.00;;;1.83;;
31128;SDS011;17777;48.770;8.944;2023-09-07T10:06:09;2.70;;;1.77;;
31128;SDS011;17777;48.770;8.944;2023-09-07T10:11:27;2.22;;;1.77;;
31128;SDS011;17777;48.770;8.944;2023-09-07T10:14:02;1.95;;;1.73;;
31128;SDS011;17777;48.770;8.944;2023-09-07T10:16:40;1.67;;;1.58;;
31128;SDS011;17777;48.770;8.944;2023-09-07T10:21:42;2.15;;;1.92;;
31128;SDS011;17777;48.770;8.944;2023-09-07T10:24:09;1.70;;;1.60;;
31128;SDS011;17777;48.770;8.944;2023-09-07T10:26:35;2.00;;;1.80;;
31128;SDS011;17777;48.770;8.944;2023-09-07T10:29:01;2.72;;;1.92;;
31128;SDS011;17777;48.770;8.944;2023-09-07T10:31:29;2.95;;;1.90;;
31128;SDS011;17777;48.770;8.944;2023-09-07T10:34:07;2.75;;;1.80;;
31128;SDS011;17777;48.770;8.944;2023-09-07T10:36:36;4.47;;;1.90;;
31128;SDS011;17777;48.770;8.944;2023-09-07T10:39:02;5.85;;;1.83;;
31128;SDS011;17777;48.770;8.944;2023-09-07T10:41:39;2.00;;;1.90;;
31128;SDS011;17777;48.770;8.944;2023-09-07T10:44:09;1.75;;;1.65;;
31128;SDS011;17777;48.770;8.944;2023-09-07T10:46:39;1.60;;;1.50;;
31128;SDS011;17777;48.770;8.944;2023-09-07T10:49:08;1.80;;;1.70;;
31128;SDS011;17777;48.770;8.944;2023-09-07T10:51:46;3.45;;;1.70;;
31128;SDS011;17777;48.770;8.944;2023-09-07T10:54:13;1.83;;;1.73;;
31128;SDS011;17777;48.770;8.944;2023-09-07T10:56:44;2.25;;;2.05;;
31128;SDS011;17777;48.770;8.944;2023-09-07T10:59:11;2.30;;;1.73;;
31128;SDS011;17777;48.770;8.944;2023-09-07T11:01:38;1.90;;;1.70;;
31128;SDS011;17777;48.770;8.944;2023-09-07T11:04:04;1.98;;;1.77;;
31128;SDS011;17777;48.770;8.944;2023-09-07T11:06:30;1.98;;;1.77;;
31128;SDS011;17777;48.770;8.944;2023-09-07T11:08:59;1.98;;;1.63;;
31128;SDS011;17777;48.770;8.944;2023-09-07T11:11:26;2.10;;;1.90;;
31128;SDS011;17777;48.770;8.944;2023-09-07T11:13:52;1.80;;;1.70;;
31128;SDS011;17777;48.770;8.944;2023-09-07T11:16:18;2.55;;;1.70;;
31128;SDS011;17777;48.770;8.944;2023-09-07T11:18:44;2.22;;;1.85;;
31128;SDS011;17777;48.770;8.944;2023-09-07T11:21:11;4.68;;;1.70;;
31128;SDS011;17777;48.770;8.944;2023-09-07T11:23:37;2.13;;;1.73;;
31128;SDS011;17777;48.770;8.944;2023-09-07T11:26:06;5.85;;;1.98;;
31128;SDS011;17777;48.770;8.944;2023-09-07T11:28:33;2.95;;;1.80;;
31128;SDS011;17777;48.770;8.944;2023-09-07T11:30:59;1.73;;;1.63;;
31128;SDS011;17777;48.770;8.944;2023-09-07T11:33:26;2.13;;;1.92;;
31128;SDS011;17777;48.770;8.944;2023-09-07T11:35:52;1.80;;;1.48;;
31128;SDS011;17777;48.770;8.944;2023-09-07T11:38:21;1.92;;;1.73;;
31128;SDS011;17777;48.770;8.944;2023-09-07T11:40:47;2.15;;;1.98;;
31128;SDS011;17777;48.770;8.944;2023-09-07T11:43:14;2.15;;;1.77;;
31128;SDS011;17777;48.770;8.944;2023-09-07T11:45:41;1.73;;;1.63;;
31128;SDS011;17777;48.770;8.944;2023-09-07T11:48:09;6.07;;;1.83;;
31128;SDS011;17777;48.770;8.944;2023-09-07T11:50:36;2.45;;;2.00;;
31128;SDS011;17777;48.770;8.944;2023-09-07T11:53:04;2.00;;;1.80;;
31128;SDS011;17777;48.770;8.944;2023-09-07T11:55:30;2.03;;;1.83;;
31128;SDS011;17777;48.770;8.944;2023-09-07T11:57:57;2.03;;;1.90;;
31128;SDS011;17777;48.770;8.944;2023-09-07T12:00:22;1.85;;;1.75;;
31128;SDS011;17777;48.770;8.944;2023-09-07T12:02:49;2.03;;;1.83;;
31128;SDS011;17777;48.770;8.944;2023-09-07T12:05:15;1.80;;;1.70;;
31128;SDS011;17777;48.770;8.944;2023-09-07T12:07:43;1.67;;;1.58;;
31128;SDS011;17777;48.770;8.944;2023-09-07T12:10:09;1.80;;;1.70;;
31128;SDS011;17777;48.770;8.944;2023-09-07T12:12:39;2.55;;;1.98;;
31128;SDS011;17777;48.770;8.944;2023-09-07T12:15:06;2.60;;;2.22;;
31128;SDS011;17777;48.770;8.944;2023-09-07T12:17:33;2.38;;;2.17;;
31128;SDS011;17777;48.770;8.944;2023-09-07T12:20:00;2.30;;;2.10;;
31128;SDS011;17777;48.770;8.944;2023-09-07T12:22:26;3.10;;;2.00;;
31128;SDS011;17777;48.770;8.944;2023-09-07T12:24:52;2.30;;;2.10;;
31128;SDS011;17777;48.770;8.944;2023-09-07T12:27:18;2.58;;;2.00;;
31128;SDS011;17777;48.770;8.944;2023-09-07T12:29:45;2.33;;;2.13;;
31128;SDS011;17777;48.770;8.944;2023-09-07T12:32:11;2.45;;;2.20;;
31128;SDS011;17777;48.770;8.944;2023-09-07T12:34:37;2.78;;;1.95;;
31128;SDS011;17777;48.770;8.944;2023-09-07T12:37:04;2.13;;;1.90;;
31128;SDS011;17777;48.770;8.944;2023-09-07T12:39:29;5.13;;;2.10;;
31128;SDS011;17777;48.770;8.944;2023-09-07T12:41:56;2.22;;;2.10;;
31128;SDS011;17777;48.770;8.944;2023-09-07T12:44:22;2.08;;;1.88;;
31128;SDS011;17777;48.770;8.944;2023-09-07T12:46:48;2.17;;;1.98;;
31128;SDS011;17777;48.770;8.944;2023-09-07T12:49:14;2.28;;;2.00;;
31128;SDS011;17777;48.770;8.944;2023-09-07T12:51:40;2.92;;;2.00;;
31128;SDS011;17777;48.770;8.944;2023-09-07T12:54:07;2.42;;;2.10;;
31128;SDS011;17777;48.770;8.944;2023-09-07T12:56:33;4.10;;;2.20;;
31128;SDS011;17777;48.770;8.944;2023-09-07T12:58:59;1.73;;;1.63;;
31128;SDS011;17777;48.770;8.944;2023-09-07T13:01:25;2.95;;;2.13;;
31128;SDS011;17777;48.770;8.944;2023-09-07T13:03:51;2.10;;;1.90;;
31128;SDS011;17777;48.770;8.944;2023-09-07T13:06:17;2.10;;;1.90;;
31128;SDS011;17777;48.770;8.944;2023-09-07T13:08:44;2.90;;;1.83;;
31128;SDS011;17777;48.770;8.944;2023-09-07T13:11:10;2.30;;;1.88;;
31128;SDS011;17777;48.770;8.944;2023-09-07T13:13:36;2.25;;;1.90;;
31128;SDS011;17777;48.770;8.944;2023-09-07T13:16:03;2.25;;;1.75;;
31128;SDS011;17777;48.770;8.944;2023-09-07T13:18:30;2.10;;;1.80;;
31128;SDS011;17777;48.770;8.944;2023-09-07T13:20:56;1.73;;;1.63;;
31128;SDS011;17777;48.770;8.944;2023-09-07T13:23:28;1.95;;;1.60;;
31128;SDS011;17777;48.770;8.944;2023-09-07T13:25:55;1.73;;;1.52;;
31128;SDS011;17777;48.770;8.944;2023-09-07T13:28:21;3.28;;;2.00;;
31128;SDS011;17777;48.770;8.944;2023-09-07T13:30:48;1.60;;;1.23;;
31128;SDS011;17777;48.770;8.944;2023-09-07T13:33:17;1.60;;;1.50;;
31128;SDS011;17777;48.770;8.944;2023-09-07T13:35:43;1.52;;;1.30;;
31128;SDS011;17777;48.770;8.944;2023-09-07T13:38:09;1.50;;;1.40;;
31128;SDS011;17777;48.770;8.944;2023-09-07T13:40:35;1.95;;;1.40;;
31128;SDS011;17777;48.770;8.944;2023-09-07T13:43:01;1.55;;;1.45;;
31128;SDS011;17777;48.770;8.944;2023-09-07T13:45:27;2.92;;;1.30;;
31128;SDS011;17777;48.770;8.944;2023-09-07T13:47:54;1.90;;;1.67;;
31128;SDS011;17777;48.770;8.944;2023-09-07T13:50:21;1.55;;;1.45;;
31128;SDS011;17777;48.770;8.944;2023-09-07T13:52:47;1.33;;;1.23;;
31128;SDS011;17777;48.770;8.944;2023-09-07T13:55:13;1.45;;;1.35;;
31128;SDS011;17777;48.770;8.944;2023-09-07T13:57:40;1.40;;;1.30;;
31128;SDS011;17777;48.770;8.944;2023-09-07T14:00:05;1.40;;;1.30;;
31128;SDS011;17777;48.770;8.944;2023-09-07T14:02:32;1.50;;;1.40;;
31128;SDS011;17777;48.770;8.944;2023-09-07T14:04:58;3.30;;;1.30;;
31128;SDS011;17777;48.770;8.944;2023-09-07T14:07:24;1.40;;;1.30;;
31128;SDS011;17777;48.770;8.944;2023-09-07T14:09:51;1.42;;;1.33;;
31128;SDS011;17777;48.770;8.944;2023-09-07T14:12:18;1.60;;;1.50;;
31128;SDS011;17777;48.770;8.944;2023-09-07T14:14:45;1.58;;;1.30;;
31128;SDS011;17777;48.770;8.944;2023-09-07T14:17:11;1.65;;;1.50;;
31128;SDS011;17777;48.770;8.944;2023-09-07T14:19:36;2.38;;;1.45;;
31128;SDS011;17777;48.770;8.944;2023-09-07T14:22:02;2.42;;;1.58;;
31128;SDS011;17777;48.770;8.944;2023-09-07T14:24:28;3.92;;;1.58;;
31128;SDS011;17777;48.770;8.944;2023-09-07T14:26:54;1.55;;;1.45;;
31128;SDS011;17777;48.770;8.944;2023-09-07T14:29:20;1.70;;;1.60;;
31128;SDS011;17777;48.770;8.944;2023-09-07T14:31:46;1.70;;;1.40;;
31128;SDS011;17777;48.770;8.944;2023-09-07T14:34:12;1.45;;;1.35;;
31128;SDS011;17777;48.770;8.944;2023-09-07T14:36:38;2.70;;;1.50;;
31128;SDS011;17777;48.770;8.944;2023-09-07T14:39:07;1.58;;;1.48;;
31128;SDS011;17777;48.770;8.944;2023-09-07T14:41:36;2.15;;;1.40;;
31128;SDS011;17777;48.770;8.944;2023-09-07T14:44:02;2.30;;;1.55;;
31128;SDS011;17777;48.770;8.944;2023-09-07T14:46:28;1.45;;;1.35;;
31128;SDS011;17777;48.770;8.944;2023-09-07T14:48:54;1.52;;;1.30;;
31128;SDS011;17777;48.770;8.944;2023-09-07T14:51:21;1.45;;;1.35;;
31128;SDS011;17777;48.770;8.944;2023-09-07T14:53:47;2.83;;;1.67;;